logo
Search for airport 
image banner adimage banner adimage banner ad
image banner ad

FAGR - Graaff-Reinet

Located in Graaff-Reinet, South Africa

ICAO - FAGR, IATA -

Data provided by Airmate  

General information

Coordinates: S32°11'33" E24°32'25"
Elevation is 2606 feet MSL.
Magnetic variation is -26° East
View others Airports in Eastern Cape

Operational data

Special qualification required
Current time UTC:
Current local time:
Weather at : - ( 0 km )
METAR: PPIZ 181041Z AUTO 05021KT 2 1/2SM -SN BR SCT009 BKN045 BKN055 M09/M11 A3018 RMK AO2 PK WND 05030/1014 P0000 FZRANO
View NOTAMs / SUP AIP / TFR affecting this airport [VIEW]
Communications frequencies: [VIEW]

Runways:

RWY identifierQFULength (ft)Width (ft)SurfaceLDA (ft)
0415°488471ASPH4921
22195°488471ASPH4921
15130°279283GRAS2802
33310°279283GRAS2802

Airport contact information

Address: Graaff-Reinet South Africa

Satellite view of FAGR